Barnard, Indiana
Current Conditions -  °F | °C
As of 8:35 AM on Sunday 23 Nov 2014 (Local Time) from K4I7 Reporting Station
Scattered Clouds Scattered Clouds  
Wind Chill: 45°   Ceiling: Unl
Heat Index: 48°   Visibility: 10mi
Dew Point: 43°   Wind: 8mph
Humidity: 82%   Direction: 170°S
Pressure: 29.87"   Gusts: NA
Location:  39.821°N, 86.7929°W
Report Text: K4I7 231335Z AUTO 17007KT 10SM SCT100 09/06 A2987 RMK AO2
Loading
Personal Weather Stations






























Interactive Weather Map New forecast layout! Learn more

10-Day Weather Forecast

Advertisements
Track Severe Weather on mobile